createdAt,value
2019-02-23T00:00:47.072Z,19.23
2019-02-23T00:03:17.513Z,16.60
2019-02-23T00:05:46.883Z,16.73
2019-02-23T00:08:16.158Z,16.67
2019-02-23T00:10:45.427Z,21.03
2019-02-23T00:13:15.007Z,20.23
2019-02-23T00:15:44.279Z,16.40
2019-02-23T00:18:13.817Z,16.33
2019-02-23T00:20:44.446Z,17.93
2019-02-23T00:23:13.775Z,17.77
2019-02-23T00:25:43.052Z,19.00
2019-02-23T00:28:12.668Z,19.37
2019-02-23T00:30:41.944Z,17.93
2019-02-23T00:33:11.240Z,19.03
2019-02-23T00:35:40.520Z,21.13
2019-02-23T00:38:09.802Z,17.97
2019-02-23T00:40:39.391Z,20.43
2019-02-23T00:43:08.672Z,19.40
2019-02-23T00:45:37.971Z,18.70
2019-02-23T00:48:07.508Z,19.10
2019-02-23T00:50:37.120Z,17.77
2019-02-23T00:53:06.424Z,15.90
2019-02-23T00:55:36.036Z,18.30
2019-02-23T00:58:06.603Z,17.17
2019-02-23T01:00:35.884Z,19.07
2019-02-23T01:03:05.484Z,18.70
2019-02-23T01:05:34.755Z,17.13
2019-02-23T01:08:04.040Z,17.20
2019-02-23T01:10:33.601Z,19.97
2019-02-23T01:13:02.870Z,17.87
2019-02-23T01:15:32.139Z,19.13
2019-02-23T01:18:01.715Z,20.37
2019-02-23T01:20:30.996Z,19.87
2019-02-23T01:23:00.287Z,21.43
2019-02-23T01:25:29.935Z,18.33
2019-02-23T01:27:59.221Z,22.47
2019-02-23T01:30:28.748Z,21.10
2019-02-23T01:32:58.360Z,23.00
2019-02-23T01:35:28.485Z,21.23
2019-02-23T01:37:57.764Z,21.00
2019-02-23T01:40:27.171Z,20.67
2019-02-23T01:42:56.489Z,21.67
2019-02-23T01:45:25.831Z,22.13
2019-02-23T01:47:55.131Z,23.50
2019-02-23T01:50:24.727Z,20.97
2019-02-23T01:52:54.013Z,19.60
2019-02-23T01:55:23.619Z,21.10
2019-02-23T01:57:52.923Z,20.90
2019-02-23T02:00:23.704Z,21.80
2019-02-23T02:02:52.995Z,19.60
2019-02-23T02:05:22.445Z,20.40
2019-02-23T02:07:52.307Z,22.10
2019-02-23T02:10:21.660Z,21.37
2019-02-23T02:12:52.751Z,22.30
2019-02-23T02:15:22.031Z,19.07
2019-02-23T02:17:51.315Z,21.33
2019-02-23T02:20:20.868Z,20.87
2019-02-23T02:22:50.486Z,19.93
2019-02-23T02:25:19.851Z,23.53
2019-02-23T02:27:49.393Z,22.07
2019-02-23T02:30:19.008Z,26.07
2019-02-23T02:32:48.617Z,22.33
2019-02-23T02:35:19.255Z,25.33
2019-02-23T02:37:48.562Z,23.17
2019-02-23T02:40:17.850Z,25.90
2019-02-23T02:42:47.139Z,24.40
2019-02-23T02:45:17.186Z,25.63
2019-02-23T02:47:46.807Z,21.20
2019-02-23T02:50:24.151Z,24.47
2019-02-23T02:52:47.552Z,22.00
2019-02-23T02:55:16.870Z,24.60
2019-02-23T02:57:46.468Z,24.07
2019-02-23T03:00:16.076Z,29.83
2019-02-23T03:02:46.159Z,26.40
2019-02-23T03:05:15.440Z,24.00
2019-02-23T03:07:44.723Z,29.40
2019-02-23T03:10:14.022Z,26.63
2019-02-23T03:12:43.308Z,27.87
2019-02-23T03:15:12.626Z,27.30
2019-02-23T03:17:41.911Z,28.10
2019-02-23T03:20:11.203Z,31.67
2019-02-23T03:22:40.736Z,28.90
2019-02-23T03:25:10.355Z,28.93
2019-02-23T03:27:40.677Z,34.00
2019-02-23T03:30:11.429Z,28.30
2019-02-23T03:32:40.768Z,29.17
2019-02-23T03:35:10.058Z,26.80
2019-02-23T03:37:39.349Z,30.07
2019-02-23T03:40:09.186Z,29.17
2019-02-23T03:42:38.752Z,30.77
2019-02-23T03:45:08.567Z,30.33
2019-02-23T03:47:38.184Z,26.67
2019-02-23T03:50:08.138Z,23.90
2019-02-23T03:52:37.452Z,31.43
2019-02-23T03:55:07.121Z,30.87
2019-02-23T03:57:36.408Z,26.93
2019-02-23T04:00:09.059Z,26.53
2019-02-23T04:02:39.401Z,31.43
2019-02-23T04:05:09.588Z,32.70
2019-02-23T04:07:38.872Z,36.47
2019-02-23T04:10:09.082Z,34.13
2019-02-23T04:12:38.363Z,38.13
2019-02-23T04:15:08.036Z,30.80
2019-02-23T04:17:37.324Z,31.70
2019-02-23T04:20:08.488Z,31.00
2019-02-23T04:22:37.776Z,33.77
2019-02-23T04:25:08.497Z,37.03
2019-02-23T04:27:37.817Z,35.83
2019-02-23T04:30:08.734Z,28.93
2019-02-23T04:32:38.019Z,37.77
2019-02-23T04:35:07.379Z,35.40
2019-02-23T04:37:36.947Z,38.23
2019-02-23T04:40:07.896Z,34.93
2019-02-23T04:42:37.188Z,34.33
2019-02-23T04:45:07.515Z,34.33
2019-02-23T04:47:36.814Z,34.67
2019-02-23T04:50:09.244Z,37.10
2019-02-23T04:52:38.813Z,32.33
2019-02-23T04:55:09.044Z,35.83
2019-02-23T04:57:38.332Z,36.63
2019-02-23T05:00:10.691Z,32.80
2019-02-23T05:02:40.075Z,38.20
2019-02-23T05:05:09.956Z,30.90
2019-02-23T05:07:40.100Z,38.93
2019-02-23T05:10:09.792Z,35.90
2019-02-23T05:12:39.086Z,35.90
2019-02-23T05:15:10.392Z,34.80
2019-02-23T05:17:39.680Z,35.97
2019-02-23T05:20:08.971Z,35.00
2019-02-23T05:22:38.266Z,33.70
2019-02-23T05:25:07.544Z,32.60
2019-02-23T05:27:37.159Z,35.50
2019-02-23T05:30:09.595Z,38.57
2019-02-23T05:32:40.064Z,36.90
2019-02-23T05:35:11.830Z,37.30
2019-02-23T05:37:42.152Z,33.03
2019-02-23T05:40:14.302Z,37.93
2019-02-23T05:42:43.596Z,38.63
2019-02-23T05:45:12.951Z,36.23
2019-02-23T05:47:55.053Z,36.67
2019-02-23T05:50:24.340Z,34.20
2019-02-23T05:52:53.664Z,34.37
2019-02-23T05:55:22.952Z,33.77
2019-02-23T05:57:52.248Z,35.93
2019-02-23T06:00:21.551Z,42.07
2019-02-23T06:02:50.837Z,33.43
2019-02-23T06:05:20.119Z,35.23
2019-02-23T06:07:51.205Z,36.43
2019-02-23T06:10:20.496Z,36.63
2019-02-23T06:12:49.788Z,38.70
2019-02-23T06:15:19.073Z,40.67
2019-02-23T06:17:48.619Z,41.57
2019-02-23T06:20:18.231Z,36.53
2019-02-23T06:22:47.836Z,34.37
2019-02-23T06:25:18.582Z,35.93
2019-02-23T06:27:47.868Z,38.20
2019-02-23T06:30:18.408Z,38.60
2019-02-23T06:32:48.223Z,38.10
2019-02-23T06:35:17.520Z,37.07
2019-02-23T06:37:46.804Z,41.13
2019-02-23T06:40:16.444Z,41.83
2019-02-23T06:42:46.056Z,38.20
2019-02-23T06:45:15.345Z,33.53
2019-02-23T06:47:45.520Z,41.20
2019-02-23T06:50:14.799Z,38.13
2019-02-23T06:52:44.177Z,38.40
2019-02-23T06:55:13.805Z,43.43
2019-02-23T06:57:43.088Z,42.60
2019-02-23T07:00:16.131Z,39.27
2019-02-23T07:02:45.712Z,39.23
2019-02-23T07:05:15.322Z,43.47
2019-02-23T07:07:44.612Z,41.00
2019-02-23T07:10:15.055Z,40.50
2019-02-23T07:12:44.367Z,36.17
2019-02-23T07:15:14.790Z,38.30
2019-02-23T07:17:44.077Z,42.00
2019-02-23T07:20:13.708Z,37.77
2019-02-23T07:22:43.312Z,39.67
2019-02-23T07:25:13.467Z,35.73
2019-02-23T07:27:43.051Z,34.07
2019-02-23T07:30:14.165Z,43.13
2019-02-23T07:32:43.446Z,36.80
2019-02-23T07:35:13.108Z,34.20
2019-02-23T07:37:42.392Z,34.40
2019-02-23T07:40:13.607Z,37.27
2019-02-23T07:42:44.223Z,34.47
2019-02-23T07:45:13.592Z,37.40
2019-02-23T07:47:42.864Z,39.60
2019-02-23T07:50:14.089Z,40.63
2019-02-23T07:52:43.662Z,41.03
2019-02-23T07:55:13.274Z,38.73
2019-02-23T07:57:42.887Z,36.10
2019-02-23T08:00:15.083Z,36.37
2019-02-23T08:02:44.373Z,36.97
2019-02-23T08:05:13.648Z,35.83
2019-02-23T08:07:42.928Z,41.97
2019-02-23T08:10:13.051Z,38.07
2019-02-23T08:12:43.096Z,37.10
2019-02-23T08:15:12.646Z,33.23
2019-02-23T08:17:43.004Z,42.17
2019-02-23T08:20:13.680Z,37.40
2019-02-23T08:22:43.297Z,38.10
2019-02-23T08:25:14.095Z,29.97
2019-02-23T08:27:43.741Z,32.37
2019-02-23T08:30:14.780Z,34.80
2019-02-23T08:32:44.064Z,44.07
2019-02-23T08:35:13.356Z,38.93
2019-02-23T08:37:42.899Z,36.07
2019-02-23T08:40:18.387Z,39.97
2019-02-23T08:42:47.667Z,39.70
2019-02-23T08:45:16.948Z,36.10
2019-02-23T08:47:46.241Z,37.40
2019-02-23T08:50:16.387Z,36.80
2019-02-23T08:52:49.929Z,33.97
2019-02-23T08:55:17.496Z,37.50
2019-02-23T08:57:47.117Z,36.33
2019-02-23T09:00:19.457Z,34.93
2019-02-23T09:02:48.755Z,36.87
2019-02-23T09:05:18.036Z,33.10
2019-02-23T09:07:47.384Z,36.70
2019-02-23T09:10:16.960Z,38.07
2019-02-23T09:12:46.874Z,32.93
2019-02-23T09:15:16.218Z,34.90
2019-02-23T09:17:45.531Z,35.60
2019-02-23T09:20:15.089Z,28.43
2019-02-23T09:22:44.706Z,36.93
2019-02-23T09:25:13.990Z,36.57
2019-02-23T09:27:44.159Z,34.20
2019-02-23T09:30:14.767Z,33.97
2019-02-23T09:32:44.048Z,30.70
2019-02-23T09:35:14.576Z,37.13
2019-02-23T09:37:43.859Z,36.47
2019-02-23T09:40:20.512Z,31.33
2019-02-23T09:42:50.836Z,34.07
2019-02-23T09:45:20.115Z,36.13
2019-02-23T09:47:49.400Z,30.87
2019-02-23T09:50:18.680Z,37.03
2019-02-23T09:52:47.964Z,28.97
2019-02-23T09:55:17.528Z,31.03
2019-02-23T09:57:47.144Z,30.53
2019-02-23T10:00:16.942Z,29.13
2019-02-23T10:02:46.220Z,31.17
2019-02-23T10:05:15.764Z,31.80
2019-02-23T10:07:45.043Z,26.13
2019-02-23T10:10:14.597Z,29.73
2019-02-23T10:12:43.937Z,29.97
2019-02-23T10:15:13.703Z,32.80
2019-02-23T10:17:42.984Z,32.67
2019-02-23T10:20:13.621Z,31.10
2019-02-23T10:22:42.896Z,28.40
2019-02-23T10:25:12.193Z,26.90
2019-02-23T10:27:41.758Z,29.23
2019-02-23T10:30:15.525Z,27.07
2019-02-23T10:32:44.801Z,28.77
2019-02-23T10:35:14.453Z,27.53
2019-02-23T10:37:43.731Z,28.40
2019-02-23T10:40:13.616Z,25.83
2019-02-23T10:42:42.915Z,29.53
2019-02-23T10:45:12.933Z,28.23
2019-02-23T10:47:42.460Z,26.87
2019-02-23T10:50:13.384Z,30.23
2019-02-23T10:52:42.747Z,30.13
2019-02-23T10:55:15.567Z,29.70
2019-02-23T10:57:44.908Z,26.77
2019-02-23T11:00:25.533Z,29.63
2019-02-23T11:02:54.847Z,23.03
2019-02-23T11:05:24.265Z,28.27
2019-02-23T11:07:53.860Z,25.17
2019-02-23T11:10:23.874Z,25.50
2019-02-23T11:12:54.708Z,24.87
2019-02-23T11:15:23.992Z,24.43
2019-02-23T11:17:53.416Z,25.13
2019-02-23T11:20:23.541Z,23.93
2019-02-23T11:22:52.824Z,26.30
2019-02-23T11:25:23.511Z,20.80
2019-02-23T11:27:52.792Z,22.57
2019-02-23T11:30:22.077Z,23.77
2019-02-23T11:32:51.368Z,22.57
2019-02-23T11:35:20.655Z,19.33
2019-02-23T11:37:50.036Z,21.13
2019-02-23T11:40:19.325Z,21.33
2019-02-23T11:42:48.921Z,23.17
2019-02-23T11:45:18.211Z,20.20
2019-02-23T11:47:47.489Z,21.33
2019-02-23T11:50:16.847Z,22.03
2019-02-23T11:52:46.138Z,24.87
2019-02-23T11:55:15.472Z,22.27
2019-02-23T11:57:45.031Z,25.97
2019-02-23T12:00:15.476Z,19.87
2019-02-23T12:02:52.571Z,21.40
2019-02-23T12:05:17.101Z,19.37
2019-02-23T12:07:46.384Z,25.30
2019-02-23T12:10:16.687Z,21.43
2019-02-23T12:12:45.972Z,22.90
2019-02-23T12:15:16.879Z,23.60
2019-02-23T12:17:46.163Z,22.93
2019-02-23T12:20:15.537Z,23.90
2019-02-23T12:22:45.252Z,23.97
2019-02-23T12:25:16.213Z,23.10
2019-02-23T12:27:45.736Z,25.30
2019-02-23T12:30:15.031Z,24.00
2019-02-23T12:32:44.315Z,29.27
2019-02-23T12:35:13.610Z,24.30
2019-02-23T12:37:42.923Z,20.70
2019-02-23T12:40:12.342Z,23.97
2019-02-23T12:42:41.637Z,22.83
2019-02-23T12:45:12.979Z,21.70
2019-02-23T12:47:42.259Z,22.67
2019-02-23T12:50:12.888Z,22.70
2019-02-23T12:52:42.193Z,22.33
2019-02-23T12:55:12.132Z,27.47
2019-02-23T12:57:41.516Z,22.80
2019-02-23T13:00:15.799Z,22.13
2019-02-23T13:02:46.304Z,20.10
2019-02-23T13:05:15.580Z,18.10
2019-02-23T13:07:44.876Z,17.63
2019-02-23T13:10:14.328Z,20.30
2019-02-23T13:12:46.800Z,21.53
2019-02-23T13:15:22.140Z,18.63
2019-02-23T13:18:20.061Z,16.83
2019-02-23T13:21:13.836Z,16.17
2019-02-23T13:23:46.535Z,18.77
2019-02-23T13:26:34.348Z,18.20
2019-02-23T13:29:12.428Z,17.50
2019-02-23T13:31:56.651Z,16.40
2019-02-23T13:34:35.056Z,16.70
2019-02-23T13:37:13.733Z,18.60
2019-02-23T13:40:13.537Z,16.30
2019-02-23T13:42:55.013Z,16.70
2019-02-23T13:45:45.916Z,18.00
2019-02-23T13:48:30.327Z,48.23
2019-02-23T13:51:05.024Z,20.70
2019-02-23T13:53:51.824Z,19.20
2019-02-23T13:56:33.479Z,17.13
2019-02-23T13:59:14.979Z,16.97
2019-02-23T14:01:56.092Z,19.20
2019-02-23T14:04:40.212Z,16.20
2019-02-23T14:07:22.002Z,15.43
2019-02-23T14:10:14.144Z,20.03
2019-02-23T14:12:52.360Z,15.30
2019-02-23T14:15:51.466Z,16.17
2019-02-23T14:18:38.427Z,16.27
2019-02-23T14:21:45.553Z,14.83
2019-02-23T14:24:36.068Z,16.23
2019-02-23T14:27:28.760Z,17.53
2019-02-23T14:30:28.579Z,14.53
2019-02-23T14:33:03.487Z,13.93
2019-02-23T14:35:42.215Z,12.90
2019-02-23T14:38:35.665Z,16.10
2019-02-23T14:41:24.125Z,13.80
2019-02-23T14:44:11.117Z,14.90
2019-02-23T14:47:00.047Z,14.37
2019-02-23T14:49:49.861Z,15.13
2019-02-23T14:52:27.034Z,13.87
2019-02-23T14:55:17.258Z,12.13
2019-02-23T14:57:56.036Z,10.73
2019-02-23T15:00:39.718Z,13.43
2019-02-23T15:03:24.176Z,32.63
2019-02-23T15:06:14.716Z,11.83
2019-02-23T15:09:11.535Z,13.47
2019-02-23T15:11:49.536Z,15.63
2019-02-23T15:14:28.978Z,13.83
2019-02-23T15:17:15.311Z,13.53
2019-02-23T15:20:02.551Z,16.93
2019-02-23T15:22:50.007Z,13.37
2019-02-23T15:25:51.636Z,18.07
2019-02-23T15:28:50.217Z,13.43
2019-02-23T15:31:40.324Z,15.60
2019-02-23T15:34:39.675Z,15.03
2019-02-23T15:37:21.107Z,13.90
2019-02-23T15:40:17.587Z,14.33
2019-02-23T15:43:08.143Z,14.97
2019-02-23T15:46:03.378Z,14.20
2019-02-23T15:48:53.674Z,13.60
2019-02-23T15:51:23.270Z,14.60
2019-02-23T15:53:52.669Z,13.10
2019-02-23T15:56:22.132Z,18.70
2019-02-23T15:58:51.472Z,12.60
2019-02-23T16:01:20.757Z,18.60
2019-02-23T16:03:50.040Z,16.07
2019-02-23T16:06:21.576Z,15.53
2019-02-23T16:08:50.859Z,17.70
2019-02-23T16:11:20.136Z,15.27
2019-02-23T16:13:50.724Z,14.43
2019-02-23T16:16:20.009Z,16.90
2019-02-23T16:18:49.655Z,14.97
2019-02-23T16:21:19.307Z,13.07
2019-02-23T16:23:49.139Z,18.80
2019-02-23T16:26:18.631Z,17.90
2019-02-23T16:28:48.987Z,34.33
2019-02-23T16:31:18.383Z,82.97
2019-02-23T16:33:47.677Z,23.67
2019-02-23T16:36:17.388Z,18.43
2019-02-23T16:38:46.668Z,19.80
2019-02-23T16:41:16.195Z,17.87
2019-02-23T16:43:45.976Z,18.23
2019-02-23T16:46:15.520Z,14.83
2019-02-23T16:48:44.836Z,17.90
2019-02-23T16:51:14.437Z,19.87
2019-02-23T16:53:44.108Z,17.40
2019-02-23T16:56:14.521Z,19.70
2019-02-23T16:58:43.879Z,20.77
2019-02-23T17:01:13.200Z,29.10
2019-02-23T17:03:43.247Z,24.97
2019-02-23T17:06:12.523Z,21.60
2019-02-23T17:08:41.803Z,19.57
2019-02-23T17:11:11.088Z,18.03
2019-02-23T17:13:40.634Z,18.73
2019-02-23T17:16:10.246Z,151.13
2019-02-23T17:18:39.523Z,18.67
2019-02-23T17:21:10.321Z,18.13
2019-02-23T17:23:40.196Z,23.23
2019-02-23T17:26:09.815Z,17.23
2019-02-23T17:28:39.420Z,16.80
2019-02-23T17:31:09.033Z,18.40
2019-02-23T17:33:38.313Z,18.27
2019-02-23T17:36:08.252Z,19.03
2019-02-23T17:38:37.864Z,20.27
2019-02-23T17:41:07.137Z,17.97
2019-02-23T17:43:40.022Z,19.50
2019-02-23T17:46:08.029Z,24.43
2019-02-23T17:48:37.309Z,22.47
2019-02-23T17:51:06.605Z,21.57
2019-02-23T17:53:36.151Z,23.50
2019-02-23T17:56:12.106Z,40.07
2019-02-23T17:58:36.632Z,27.77
2019-02-23T18:01:05.917Z,39.33
2019-02-23T18:03:35.199Z,30.60
2019-02-23T18:06:04.479Z,23.93
2019-02-23T18:08:33.804Z,33.13
2019-02-23T18:11:03.083Z,30.50
2019-02-23T18:13:32.359Z,25.73
2019-02-23T18:16:03.054Z,26.50
2019-02-23T18:18:32.327Z,27.60
2019-02-23T18:21:01.623Z,34.57
2019-02-23T18:23:31.686Z,28.63
2019-02-23T18:26:01.299Z,46.13
2019-02-23T18:28:30.648Z,55.57
2019-02-23T18:30:59.927Z,40.33
2019-02-23T18:33:30.131Z,46.20
2019-02-23T18:35:59.410Z,31.20
2019-02-23T18:38:28.693Z,27.07
2019-02-23T18:40:58.344Z,18.50
2019-02-23T18:43:27.692Z,18.20
2019-02-23T18:45:57.264Z,25.17
2019-02-23T18:48:26.532Z,22.60
2019-02-23T18:50:55.819Z,20.57
2019-02-23T18:53:25.094Z,23.80
2019-02-23T18:55:54.687Z,23.47
2019-02-23T18:58:23.992Z,25.63
2019-02-23T19:00:53.267Z,26.37
2019-02-23T19:03:22.548Z,23.47
2019-02-23T19:05:52.805Z,25.63
2019-02-23T19:08:22.088Z,26.33
2019-02-23T19:10:51.367Z,28.83
2019-02-23T19:13:20.724Z,24.43
2019-02-23T19:15:50.008Z,24.87
2019-02-23T19:18:19.543Z,29.63
2019-02-23T19:20:48.857Z,26.90
2019-02-23T19:23:18.135Z,33.70
2019-02-23T19:25:48.692Z,24.60
2019-02-23T19:28:17.977Z,39.03
2019-02-23T19:30:47.260Z,66.93
2019-02-23T19:33:16.539Z,98.47
2019-02-23T19:35:46.792Z,80.77
2019-02-23T19:38:16.100Z,39.87
2019-02-23T19:40:45.380Z,27.53
2019-02-23T19:43:14.664Z,20.20
2019-02-23T19:45:44.280Z,24.20
2019-02-23T19:48:13.560Z,22.37
2019-02-23T19:50:46.383Z,25.03
2019-02-23T19:53:16.656Z,25.77
2019-02-23T19:55:45.931Z,19.60
2019-02-23T19:58:15.207Z,36.70
2019-02-23T20:00:44.508Z,177.40
2019-02-23T20:03:14.079Z,842.10
2019-02-23T20:05:43.377Z,470.10
2019-02-23T20:08:13.004Z,698.63
2019-02-23T20:10:43.013Z,498.77
2019-02-23T20:13:12.626Z,304.77
2019-02-23T20:15:41.915Z,255.37
2019-02-23T20:18:11.201Z,86.43
2019-02-23T20:20:40.565Z,25.63
2019-02-23T20:23:09.935Z,19.53
2019-02-23T20:25:39.232Z,21.27
2019-02-23T20:28:10.334Z,25.10
2019-02-23T20:30:39.916Z,22.43
2019-02-23T20:33:09.191Z,71.60
2019-02-23T20:35:38.471Z,37.60
2019-02-23T20:38:09.557Z,47.43
2019-02-23T20:40:38.836Z,25.73
2019-02-23T20:43:09.187Z,23.37
2019-02-23T20:45:38.794Z,26.17
2019-02-23T20:48:08.147Z,21.77
2019-02-23T20:50:37.820Z,23.33
2019-02-23T20:53:07.432Z,20.73
2019-02-23T20:55:36.717Z,19.40
2019-02-23T20:58:05.992Z,18.30
2019-02-23T21:00:35.272Z,19.03
2019-02-23T21:03:04.551Z,23.70
2019-02-23T21:05:33.831Z,19.40
2019-02-23T21:08:03.461Z,26.23
2019-02-23T21:10:32.740Z,25.33
2019-02-23T21:13:03.384Z,28.87
2019-02-23T21:15:33.927Z,32.40
2019-02-23T21:18:03.212Z,27.73
2019-02-23T21:20:32.852Z,29.20
2019-02-23T21:23:02.240Z,25.67
2019-02-23T21:25:31.708Z,24.20
2019-02-23T21:28:00.988Z,22.50
2019-02-23T21:30:31.127Z,21.13
2019-02-23T21:33:00.399Z,19.83
2019-02-23T21:35:29.675Z,17.47
2019-02-23T21:37:59.306Z,24.20
2019-02-23T21:40:28.918Z,21.00
2019-02-23T21:42:58.191Z,23.03
2019-02-23T21:45:27.723Z,22.57
2019-02-23T21:47:56.999Z,22.20
2019-02-23T21:50:27.428Z,21.80
2019-02-23T21:52:56.977Z,17.47
2019-02-23T21:55:26.317Z,22.57
2019-02-23T21:57:55.601Z,18.17
2019-02-23T22:00:25.195Z,21.17
2019-02-23T22:02:54.544Z,20.43
2019-02-23T22:05:24.104Z,21.80
2019-02-23T22:07:53.716Z,20.73
2019-02-23T22:10:22.994Z,22.40
2019-02-23T22:12:53.288Z,24.70
2019-02-23T22:15:22.587Z,23.20
2019-02-23T22:17:52.276Z,25.43
2019-02-23T22:20:21.812Z,21.40
2019-02-23T22:22:51.146Z,21.40
2019-02-23T22:25:20.460Z,22.60
2019-02-23T22:27:49.741Z,23.83
2019-02-23T22:30:19.029Z,22.43
2019-02-23T22:32:49.964Z,22.90
2019-02-23T22:35:19.248Z,24.03
2019-02-23T22:37:48.845Z,23.93
2019-02-23T22:40:18.471Z,23.00
2019-02-23T22:42:47.788Z,20.93
2019-02-23T22:45:17.073Z,22.33
2019-02-23T22:47:46.352Z,21.40
2019-02-23T22:50:15.631Z,21.10
2019-02-23T22:52:44.908Z,23.33
2019-02-23T22:55:14.216Z,25.07
2019-02-23T22:57:43.796Z,20.93
2019-02-23T23:00:15.612Z,19.83
2019-02-23T23:02:46.796Z,23.73
2019-02-23T23:05:16.404Z,22.00
2019-02-23T23:07:45.690Z,23.47
2019-02-23T23:10:14.972Z,27.77
2019-02-23T23:12:44.536Z,27.93
2019-02-23T23:15:14.067Z,25.17
2019-02-23T23:17:43.641Z,21.80
2019-02-23T23:20:13.489Z,24.07
2019-02-23T23:22:42.849Z,22.27
2019-02-23T23:25:12.373Z,32.47
2019-02-23T23:27:49.101Z,24.27
2019-02-23T23:30:12.968Z,29.50
2019-02-23T23:32:42.247Z,25.23
2019-02-23T23:35:13.108Z,29.27
2019-02-23T23:37:42.393Z,20.13
2019-02-23T23:40:12.604Z,24.60
2019-02-23T23:42:42.214Z,25.67
2019-02-23T23:45:11.505Z,22.57
2019-02-23T23:47:41.124Z,23.40
2019-02-23T23:50:10.405Z,19.83
2019-02-23T23:52:39.688Z,26.67
2019-02-23T23:55:09.246Z,26.93
2019-02-23T23:57:39.396Z,25.00
